sensor_id;sensor_type;location;lat;lon;timestamp;P1;durP1;ratioP1;P2;durP2;ratioP2
18159;SDS011;9205;52.032;4.314;2022-07-25T00:00:16;1.95;;;1.75;;
18159;SDS011;9205;52.032;4.314;2022-07-25T00:02:44;2.28;;;1.73;;
18159;SDS011;9205;52.032;4.314;2022-07-25T00:05:11;3.42;;;1.80;;
18159;SDS011;9205;52.032;4.314;2022-07-25T00:07:38;2.95;;;1.65;;
18159;SDS011;9205;52.032;4.314;2022-07-25T00:10:06;2.58;;;1.80;;
18159;SDS011;9205;52.032;4.314;2022-07-25T00:12:36;2.50;;;1.95;;
18159;SDS011;9205;52.032;4.314;2022-07-25T00:15:06;2.53;;;1.90;;
18159;SDS011;9205;52.032;4.314;2022-07-25T00:17:35;3.28;;;2.15;;
18159;SDS011;9205;52.032;4.314;2022-07-25T00:20:02;4.65;;;1.90;;
18159;SDS011;9205;52.032;4.314;2022-07-25T00:22:31;3.70;;;1.87;;
18159;SDS011;9205;52.032;4.314;2022-07-25T00:24:59;3.42;;;1.88;;
18159;SDS011;9205;52.032;4.314;2022-07-25T00:27:26;2.92;;;1.90;;
18159;SDS011;9205;52.032;4.314;2022-07-25T00:29:55;4.43;;;1.80;;
18159;SDS011;9205;52.032;4.314;2022-07-25T00:32:23;2.67;;;1.98;;
18159;SDS011;9205;52.032;4.314;2022-07-25T00:34:52;2.88;;;2.00;;
18159;SDS011;9205;52.032;4.314;2022-07-25T00:37:20;4.03;;;2.30;;
18159;SDS011;9205;52.032;4.314;2022-07-25T00:39:48;2.13;;;1.80;;
18159;SDS011;9205;52.032;4.314;2022-07-25T00:42:15;3.75;;;2.03;;
18159;SDS011;9205;52.032;4.314;2022-07-25T00:44:43;2.40;;;1.88;;
18159;SDS011;9205;52.032;4.314;2022-07-25T00:47:12;2.00;;;1.63;;
18159;SDS011;9205;52.032;4.314;2022-07-25T00:49:39;2.78;;;1.88;;
18159;SDS011;9205;52.032;4.314;2022-07-25T00:52:07;3.65;;;1.80;;
18159;SDS011;9205;52.032;4.314;2022-07-25T00:54:37;3.10;;;2.10;;
18159;SDS011;9205;52.032;4.314;2022-07-25T00:57:04;3.95;;;2.08;;
18159;SDS011;9205;52.032;4.314;2022-07-25T00:59:32;3.35;;;2.13;;
18159;SDS011;9205;52.032;4.314;2022-07-25T01:01:59;2.17;;;1.83;;
18159;SDS011;9205;52.032;4.314;2022-07-25T01:04:36;2.85;;;2.20;;
18159;SDS011;9205;52.032;4.314;2022-07-25T01:07:05;2.42;;;1.70;;
18159;SDS011;9205;52.032;4.314;2022-07-25T01:09:33;2.63;;;1.92;;
18159;SDS011;9205;52.032;4.314;2022-07-25T01:12:04;3.15;;;1.70;;
18159;SDS011;9205;52.032;4.314;2022-07-25T01:14:36;2.90;;;2.20;;
18159;SDS011;9205;52.032;4.314;2022-07-25T01:17:05;3.10;;;1.90;;
18159;SDS011;9205;52.032;4.314;2022-07-25T01:19:33;3.03;;;2.10;;
18159;SDS011;9205;52.032;4.314;2022-07-25T01:22:05;3.67;;;2.20;;
18159;SDS011;9205;52.032;4.314;2022-07-25T01:24:32;2.10;;;1.88;;
18159;SDS011;9205;52.032;4.314;2022-07-25T01:27:01;3.30;;;2.17;;
18159;SDS011;9205;52.032;4.314;2022-07-25T01:29:30;3.05;;;1.90;;
18159;SDS011;9205;52.032;4.314;2022-07-25T01:31:58;3.30;;;2.22;;
18159;SDS011;9205;52.032;4.314;2022-07-25T01:34:25;2.35;;;1.92;;
18159;SDS011;9205;52.032;4.314;2022-07-25T01:36:52;3.93;;;2.47;;
18159;SDS011;9205;52.032;4.314;2022-07-25T01:39:22;2.33;;;1.83;;
18159;SDS011;9205;52.032;4.314;2022-07-25T01:41:50;2.65;;;1.77;;
18159;SDS011;9205;52.032;4.314;2022-07-25T01:44:21;4.30;;;2.23;;
18159;SDS011;9205;52.032;4.314;2022-07-25T01:46:48;2.33;;;2.07;;
18159;SDS011;9205;52.032;4.314;2022-07-25T01:49:16;3.83;;;2.07;;
18159;SDS011;9205;52.032;4.314;2022-07-25T01:51:43;2.72;;;2.20;;
18159;SDS011;9205;52.032;4.314;2022-07-25T01:54:13;2.40;;;1.93;;
18159;SDS011;9205;52.032;4.314;2022-07-25T01:56:43;2.90;;;1.87;;
18159;SDS011;9205;52.032;4.314;2022-07-25T01:59:12;2.28;;;1.92;;
18159;SDS011;9205;52.032;4.314;2022-07-25T02:01:39;4.33;;;2.03;;
18159;SDS011;9205;52.032;4.314;2022-07-25T02:04:06;3.17;;;1.97;;
18159;SDS011;9205;52.032;4.314;2022-07-25T02:06:34;3.47;;;2.10;;
18159;SDS011;9205;52.032;4.314;2022-07-25T02:09:02;2.77;;;2.10;;
18159;SDS011;9205;52.032;4.314;2022-07-25T02:11:29;2.70;;;2.13;;
18159;SDS011;9205;52.032;4.314;2022-07-25T02:13:59;4.17;;;1.97;;
18159;SDS011;9205;52.032;4.314;2022-07-25T02:16:29;2.27;;;1.83;;
18159;SDS011;9205;52.032;4.314;2022-07-25T02:19:00;2.87;;;1.90;;
18159;SDS011;9205;52.032;4.314;2022-07-25T02:21:30;2.50;;;2.07;;
18159;SDS011;9205;52.032;4.314;2022-07-25T02:24:01;2.83;;;1.88;;
18159;SDS011;9205;52.032;4.314;2022-07-25T02:26:33;3.00;;;2.07;;
18159;SDS011;9205;52.032;4.314;2022-07-25T02:29:02;2.93;;;1.90;;
18159;SDS011;9205;52.032;4.314;2022-07-25T02:31:32;3.10;;;1.93;;
18159;SDS011;9205;52.032;4.314;2022-07-25T02:33:59;2.10;;;1.70;;
18159;SDS011;9205;52.032;4.314;2022-07-25T02:36:27;4.33;;;2.20;;
18159;SDS011;9205;52.032;4.314;2022-07-25T02:38:57;2.60;;;1.90;;
18159;SDS011;9205;52.032;4.314;2022-07-25T02:41:29;3.00;;;1.90;;
18159;SDS011;9205;52.032;4.314;2022-07-25T02:43:57;3.03;;;2.20;;
18159;SDS011;9205;52.032;4.314;2022-07-25T02:46:30;3.60;;;2.30;;
18159;SDS011;9205;52.032;4.314;2022-07-25T02:48:59;3.40;;;2.10;;
18159;SDS011;9205;52.032;4.314;2022-07-25T02:51:29;4.50;;;2.57;;
18159;SDS011;9205;52.032;4.314;2022-07-25T02:54:00;2.53;;;1.80;;
18159;SDS011;9205;52.032;4.314;2022-07-25T02:56:28;2.50;;;2.00;;
18159;SDS011;9205;52.032;4.314;2022-07-25T02:58:57;3.00;;;2.10;;
18159;SDS011;9205;52.032;4.314;2022-07-25T03:01:27;3.83;;;2.40;;
18159;SDS011;9205;52.032;4.314;2022-07-25T03:03:59;3.97;;;2.50;;
18159;SDS011;9205;52.032;4.314;2022-07-25T03:06:26;4.00;;;2.40;;
18159;SDS011;9205;52.032;4.314;2022-07-25T03:08:55;2.70;;;2.10;;
18159;SDS011;9205;52.032;4.314;2022-07-25T03:11:25;2.83;;;2.13;;
18159;SDS011;9205;52.032;4.314;2022-07-25T03:13:53;3.50;;;2.03;;
18159;SDS011;9205;52.032;4.314;2022-07-25T03:16:22;4.53;;;2.50;;
18159;SDS011;9205;52.032;4.314;2022-07-25T03:18:51;3.80;;;2.40;;
18159;SDS011;9205;52.032;4.314;2022-07-25T03:21:21;2.67;;;2.00;;
18159;SDS011;9205;52.032;4.314;2022-07-25T03:23:48;3.30;;;2.17;;
18159;SDS011;9205;52.032;4.314;2022-07-25T03:26:17;3.33;;;2.00;;
18159;SDS011;9205;52.032;4.314;2022-07-25T03:28:49;4.67;;;2.10;;
18159;SDS011;9205;52.032;4.314;2022-07-25T03:31:16;2.80;;;2.07;;
18159;SDS011;9205;52.032;4.314;2022-07-25T03:33:46;2.77;;;1.73;;
18159;SDS011;9205;52.032;4.314;2022-07-25T03:36:13;2.97;;;2.03;;
18159;SDS011;9205;52.032;4.314;2022-07-25T03:38:42;3.13;;;1.90;;
18159;SDS011;9205;52.032;4.314;2022-07-25T03:41:09;4.20;;;2.00;;
18159;SDS011;9205;52.032;4.314;2022-07-25T03:43:37;2.80;;;1.93;;
18159;SDS011;9205;52.032;4.314;2022-07-25T03:46:04;2.63;;;1.90;;
18159;SDS011;9205;52.032;4.314;2022-07-25T03:48:32;4.10;;;2.30;;
18159;SDS011;9205;52.032;4.314;2022-07-25T03:50:59;2.27;;;1.67;;
18159;SDS011;9205;52.032;4.314;2022-07-25T03:53:27;2.83;;;2.00;;
18159;SDS011;9205;52.032;4.314;2022-07-25T03:55:55;2.63;;;1.80;;
18159;SDS011;9205;52.032;4.314;2022-07-25T03:58:26;3.10;;;1.97;;
18159;SDS011;9205;52.032;4.314;2022-07-25T04:00:53;3.10;;;1.80;;
18159;SDS011;9205;52.032;4.314;2022-07-25T04:03:22;2.83;;;1.40;;
18159;SDS011;9205;52.032;4.314;2022-07-25T04:05:49;2.27;;;1.63;;
18159;SDS011;9205;52.032;4.314;2022-07-25T04:08:17;2.10;;;1.77;;
18159;SDS011;9205;52.032;4.314;2022-07-25T04:10:44;2.00;;;1.70;;
18159;SDS011;9205;52.032;4.314;2022-07-25T04:13:19;2.37;;;1.57;;
18159;SDS011;9205;52.032;4.314;2022-07-25T04:15:46;2.80;;;1.57;;
18159;SDS011;9205;52.032;4.314;2022-07-25T04:18:14;1.63;;;1.40;;
18159;SDS011;9205;52.032;4.314;2022-07-25T04:20:43;3.87;;;1.53;;
18159;SDS011;9205;52.032;4.314;2022-07-25T04:23:11;2.23;;;1.40;;
18159;SDS011;9205;52.032;4.314;2022-07-25T04:25:41;2.70;;;1.63;;
18159;SDS011;9205;52.032;4.314;2022-07-25T04:28:10;2.00;;;1.47;;
18159;SDS011;9205;52.032;4.314;2022-07-25T04:30:42;2.33;;;1.50;;
18159;SDS011;9205;52.032;4.314;2022-07-25T04:33:12;1.30;;;1.20;;
18159;SDS011;9205;52.032;4.314;2022-07-25T04:35:39;1.83;;;1.40;;
18159;SDS011;9205;52.032;4.314;2022-07-25T04:38:11;1.70;;;1.23;;
18159;SDS011;9205;52.032;4.314;2022-07-25T04:40:41;1.50;;;1.20;;
18159;SDS011;9205;52.032;4.314;2022-07-25T04:43:11;1.20;;;1.10;;
18159;SDS011;9205;52.032;4.314;2022-07-25T04:45:39;1.70;;;1.23;;
18159;SDS011;9205;52.032;4.314;2022-07-25T04:48:08;1.10;;;0.97;;
18159;SDS011;9205;52.032;4.314;2022-07-25T04:50:35;6.10;;;1.37;;
18159;SDS011;9205;52.032;4.314;2022-07-25T04:53:03;1.07;;;0.93;;
18159;SDS011;9205;52.032;4.314;2022-07-25T04:55:31;1.50;;;1.10;;
18159;SDS011;9205;52.032;4.314;2022-07-25T04:58:05;1.80;;;1.00;;
18159;SDS011;9205;52.032;4.314;2022-07-25T05:00:32;2.87;;;1.10;;
18159;SDS011;9205;52.032;4.314;2022-07-25T05:03:01;1.27;;;1.17;;
18159;SDS011;9205;52.032;4.314;2022-07-25T05:05:31;1.70;;;1.23;;
18159;SDS011;9205;52.032;4.314;2022-07-25T05:08:01;1.00;;;0.90;;
18159;SDS011;9205;52.032;4.314;2022-07-25T05:10:29;1.00;;;0.90;;
18159;SDS011;9205;52.032;4.314;2022-07-25T05:12:57;1.10;;;0.90;;
18159;SDS011;9205;52.032;4.314;2022-07-25T05:15:24;1.07;;;0.90;;
18159;SDS011;9205;52.032;4.314;2022-07-25T05:17:53;1.13;;;1.03;;
18159;SDS011;9205;52.032;4.314;2022-07-25T05:20:21;1.57;;;1.00;;
18159;SDS011;9205;52.032;4.314;2022-07-25T05:22:49;1.10;;;1.00;;
18159;SDS011;9205;52.032;4.314;2022-07-25T05:25:21;1.03;;;0.93;;
18159;SDS011;9205;52.032;4.314;2022-07-25T05:27:51;1.43;;;1.00;;
18159;SDS011;9205;52.032;4.314;2022-07-25T05:30:21;2.83;;;0.93;;
18159;SDS011;9205;52.032;4.314;2022-07-25T05:32:50;5.90;;;0.90;;
18159;SDS011;9205;52.032;4.314;2022-07-25T05:35:18;1.43;;;0.93;;
18159;SDS011;9205;52.032;4.314;2022-07-25T05:37:51;1.37;;;0.70;;
18159;SDS011;9205;52.032;4.314;2022-07-25T05:40:20;2.30;;;1.23;;
18159;SDS011;9205;52.032;4.314;2022-07-25T05:42:48;0.90;;;0.70;;
18159;SDS011;9205;52.032;4.314;2022-07-25T05:45:15;0.70;;;0.70;;
18159;SDS011;9205;52.032;4.314;2022-07-25T05:47:42;2.10;;;0.90;;
18159;SDS011;9205;52.032;4.314;2022-07-25T05:50:10;1.60;;;0.90;;
18159;SDS011;9205;52.032;4.314;2022-07-25T05:52:37;1.13;;;0.90;;
18159;SDS011;9205;52.032;4.314;2022-07-25T05:55:06;1.37;;;0.90;;
18159;SDS011;9205;52.032;4.314;2022-07-25T05:57:35;2.47;;;1.00;;
18159;SDS011;9205;52.032;4.314;2022-07-25T06:00:05;2.00;;;0.90;;
18159;SDS011;9205;52.032;4.314;2022-07-25T06:02:33;2.03;;;0.93;;
18159;SDS011;9205;52.032;4.314;2022-07-25T06:05:02;1.50;;;0.87;;
18159;SDS011;9205;52.032;4.314;2022-07-25T06:07:30;1.90;;;0.90;;
18159;SDS011;9205;52.032;4.314;2022-07-25T06:09:58;4.50;;;0.90;;
18159;SDS011;9205;52.032;4.314;2022-07-25T06:12:37;1.07;;;0.97;;
18159;SDS011;9205;52.032;4.314;2022-07-25T06:15:05;1.03;;;0.93;;
18159;SDS011;9205;52.032;4.314;2022-07-25T06:17:36;2.00;;;0.80;;
18159;SDS011;9205;52.032;4.314;2022-07-25T06:20:04;1.90;;;0.90;;
18159;SDS011;9205;52.032;4.314;2022-07-25T06:22:32;1.00;;;0.90;;
18159;SDS011;9205;52.032;4.314;2022-07-25T06:25:01;1.53;;;0.90;;
18159;SDS011;9205;52.032;4.314;2022-07-25T06:27:29;1.47;;;0.90;;
18159;SDS011;9205;52.032;4.314;2022-07-25T06:30:03;1.20;;;1.10;;
18159;SDS011;9205;52.032;4.314;2022-07-25T06:32:34;2.40;;;0.90;;
18159;SDS011;9205;52.032;4.314;2022-07-25T06:35:02;1.50;;;0.73;;
18159;SDS011;9205;52.032;4.314;2022-07-25T06:37:30;1.43;;;1.03;;
18159;SDS011;9205;52.032;4.314;2022-07-25T06:40:02;1.87;;;0.93;;
18159;SDS011;9205;52.032;4.314;2022-07-25T06:42:30;2.70;;;0.80;;
18159;SDS011;9205;52.032;4.314;2022-07-25T06:45:04;1.00;;;0.80;;
18159;SDS011;9205;52.032;4.314;2022-07-25T06:47:33;2.33;;;0.80;;
18159;SDS011;9205;52.032;4.314;2022-07-25T06:50:01;1.40;;;0.80;;
18159;SDS011;9205;52.032;4.314;2022-07-25T06:52:28;4.10;;;0.97;;
18159;SDS011;9205;52.032;4.314;2022-07-25T06:54:57;1.50;;;0.90;;
18159;SDS011;9205;52.032;4.314;2022-07-25T06:57:37;2.77;;;1.00;;
18159;SDS011;9205;52.032;4.314;2022-07-25T07:00:11;1.53;;;1.00;;
18159;SDS011;9205;52.032;4.314;2022-07-25T07:02:48;1.87;;;0.97;;
18159;SDS011;9205;52.032;4.314;2022-07-25T07:05:20;0.97;;;0.80;;
18159;SDS011;9205;52.032;4.314;2022-07-25T07:07:51;1.43;;;0.90;;
18159;SDS011;9205;52.032;4.314;2022-07-25T07:10:24;0.93;;;0.70;;
18159;SDS011;9205;52.032;4.314;2022-07-25T07:13:01;1.13;;;1.03;;
18159;SDS011;9205;52.032;4.314;2022-07-25T07:15:31;2.17;;;0.73;;
18159;SDS011;9205;52.032;4.314;2022-07-25T07:17:59;1.50;;;1.10;;
18159;SDS011;9205;52.032;4.314;2022-07-25T07:20:26;2.07;;;1.00;;
18159;SDS011;9205;52.032;4.314;2022-07-25T07:22:55;1.43;;;0.80;;
18159;SDS011;9205;52.032;4.314;2022-07-25T07:25:26;1.10;;;0.70;;
18159;SDS011;9205;52.032;4.314;2022-07-25T07:27:54;1.33;;;1.03;;
18159;SDS011;9205;52.032;4.314;2022-07-25T07:30:24;1.60;;;0.87;;
18159;SDS011;9205;52.032;4.314;2022-07-25T07:32:56;1.77;;;1.10;;
18159;SDS011;9205;52.032;4.314;2022-07-25T07:35:29;2.20;;;0.90;;
18159;SDS011;9205;52.032;4.314;2022-07-25T07:37:59;1.20;;;0.77;;
18159;SDS011;9205;52.032;4.314;2022-07-25T07:40:29;2.30;;;1.00;;
18159;SDS011;9205;52.032;4.314;2022-07-25T07:43:00;2.63;;;1.50;;
18159;SDS011;9205;52.032;4.314;2022-07-25T07:45:30;2.47;;;1.20;;
18159;SDS011;9205;52.032;4.314;2022-07-25T07:48:02;1.80;;;1.07;;
18159;SDS011;9205;52.032;4.314;2022-07-25T07:50:34;1.20;;;0.80;;
18159;SDS011;9205;52.032;4.314;2022-07-25T07:53:09;3.40;;;1.00;;
18159;SDS011;9205;52.032;4.314;2022-07-25T07:55:42;1.83;;;0.80;;
18159;SDS011;9205;52.032;4.314;2022-07-25T07:58:08;0.93;;;0.80;;
18159;SDS011;9205;52.032;4.314;2022-07-25T08:00:41;1.70;;;0.97;;
18159;SDS011;9205;52.032;4.314;2022-07-25T08:03:15;2.07;;;1.03;;
18159;SDS011;9205;52.032;4.314;2022-07-25T08:05:51;1.53;;;0.87;;
18159;SDS011;9205;52.032;4.314;2022-07-25T08:08:23;2.77;;;1.30;;
18159;SDS011;9205;52.032;4.314;2022-07-25T08:10:54;3.10;;;1.10;;
18159;SDS011;9205;52.032;4.314;2022-07-25T08:13:25;2.20;;;0.90;;
18159;SDS011;9205;52.032;4.314;2022-07-25T08:15:55;1.63;;;0.77;;
18159;SDS011;9205;52.032;4.314;2022-07-25T08:18:26;1.13;;;0.90;;
18159;SDS011;9205;52.032;4.314;2022-07-25T08:20:57;1.50;;;0.70;;
18159;SDS011;9205;52.032;4.314;2022-07-25T08:23:26;1.30;;;0.93;;
18159;SDS011;9205;52.032;4.314;2022-07-25T08:25:55;0.80;;;0.80;;
18159;SDS011;9205;52.032;4.314;2022-07-25T08:28:22;1.40;;;1.07;;
18159;SDS011;9205;52.032;4.314;2022-07-25T08:30:50;1.77;;;0.80;;
18159;SDS011;9205;52.032;4.314;2022-07-25T08:33:22;2.37;;;1.00;;
18159;SDS011;9205;52.032;4.314;2022-07-25T08:35:54;4.57;;;1.60;;
18159;SDS011;9205;52.032;4.314;2022-07-25T08:38:23;3.13;;;1.10;;
18159;SDS011;9205;52.032;4.314;2022-07-25T08:40:53;0.87;;;0.80;;
18159;SDS011;9205;52.032;4.314;2022-07-25T08:43:24;2.30;;;0.80;;
18159;SDS011;9205;52.032;4.314;2022-07-25T08:45:52;3.97;;;1.33;;
18159;SDS011;9205;52.032;4.314;2022-07-25T08:48:21;1.73;;;0.90;;
18159;SDS011;9205;52.032;4.314;2022-07-25T08:50:52;1.20;;;1.00;;
18159;SDS011;9205;52.032;4.314;2022-07-25T08:53:22;1.70;;;1.00;;
18159;SDS011;9205;52.032;4.314;2022-07-25T08:55:50;2.23;;;1.30;;
18159;SDS011;9205;52.032;4.314;2022-07-25T08:58:18;2.27;;;1.23;;
18159;SDS011;9205;52.032;4.314;2022-07-25T09:00:47;2.80;;;1.30;;
18159;SDS011;9205;52.032;4.314;2022-07-25T09:03:26;2.10;;;1.07;;
18159;SDS011;9205;52.032;4.314;2022-07-25T09:05:58;1.73;;;1.00;;
18159;SDS011;9205;52.032;4.314;2022-07-25T09:08:38;2.97;;;1.37;;
18159;SDS011;9205;52.032;4.314;2022-07-25T09:11:28;2.83;;;1.10;;
18159;SDS011;9205;52.032;4.314;2022-07-25T09:13:58;2.50;;;1.00;;
18159;SDS011;9205;52.032;4.314;2022-07-25T09:16:29;2.47;;;1.13;;
18159;SDS011;9205;52.032;4.314;2022-07-25T09:19:09;2.50;;;1.00;;
18159;SDS011;9205;52.032;4.314;2022-07-25T09:21:41;1.83;;;1.20;;
18159;SDS011;9205;52.032;4.314;2022-07-25T09:24:26;1.40;;;1.13;;
18159;SDS011;9205;52.032;4.314;2022-07-25T09:26:56;3.10;;;1.50;;
18159;SDS011;9205;52.032;4.314;2022-07-25T09:29:33;2.43;;;1.30;;
18159;SDS011;9205;52.032;4.314;2022-07-25T09:32:13;3.93;;;1.30;;
18159;SDS011;9205;52.032;4.314;2022-07-25T09:34:46;4.53;;;1.33;;
18159;SDS011;9205;52.032;4.314;2022-07-25T09:37:19;2.37;;;1.00;;
18159;SDS011;9205;52.032;4.314;2022-07-25T09:39:56;1.57;;;0.87;;
18159;SDS011;9205;52.032;4.314;2022-07-25T09:42:24;4.97;;;1.27;;
18159;SDS011;9205;52.032;4.314;2022-07-25T09:44:57;2.13;;;1.10;;
18159;SDS011;9205;52.032;4.314;2022-07-25T09:47:36;2.47;;;1.10;;
18159;SDS011;9205;52.032;4.314;2022-07-25T09:50:17;3.87;;;1.20;;
18159;SDS011;9205;52.032;4.314;2022-07-25T09:52:55;2.03;;;1.20;;
18159;SDS011;9205;52.032;4.314;2022-07-25T09:55:27;2.17;;;1.40;;
18159;SDS011;9205;52.032;4.314;2022-07-25T09:58:02;1.83;;;1.10;;
18159;SDS011;9205;52.032;4.314;2022-07-25T10:00:30;2.97;;;1.20;;
18159;SDS011;9205;52.032;4.314;2022-07-25T10:03:07;3.20;;;1.30;;
18159;SDS011;9205;52.032;4.314;2022-07-25T10:05:49;5.63;;;1.40;;
18159;SDS011;9205;52.032;4.314;2022-07-25T10:08:39;2.83;;;1.30;;
18159;SDS011;9205;52.032;4.314;2022-07-25T10:11:17;2.93;;;1.40;;
18159;SDS011;9205;52.032;4.314;2022-07-25T10:13:53;3.13;;;1.70;;
18159;SDS011;9205;52.032;4.314;2022-07-25T10:16:24;2.27;;;1.40;;
18159;SDS011;9205;52.032;4.314;2022-07-25T10:18:53;2.33;;;1.13;;
18159;SDS011;9205;52.032;4.314;2022-07-25T10:21:26;2.60;;;1.20;;
18159;SDS011;9205;52.032;4.314;2022-07-25T10:26:50;4.00;;;1.30;;
18159;SDS011;9205;52.032;4.314;2022-07-25T10:29:18;3.63;;;1.70;;
18159;SDS011;9205;52.032;4.314;2022-07-25T10:31:46;2.70;;;1.27;;
18159;SDS011;9205;52.032;4.314;2022-07-25T10:34:14;1.60;;;1.10;;
18159;SDS011;9205;52.032;4.314;2022-07-25T10:36:42;3.57;;;1.50;;
18159;SDS011;9205;52.032;4.314;2022-07-25T10:39:15;4.87;;;1.30;;
18159;SDS011;9205;52.032;4.314;2022-07-25T10:41:48;1.47;;;1.20;;
18159;SDS011;9205;52.032;4.314;2022-07-25T10:44:26;3.97;;;1.53;;
18159;SDS011;9205;52.032;4.314;2022-07-25T10:47:07;4.83;;;1.53;;
18159;SDS011;9205;52.032;4.314;2022-07-25T10:49:43;1.60;;;1.17;;
18159;SDS011;9205;52.032;4.314;2022-07-25T10:52:14;5.05;;;1.48;;
18159;SDS011;9205;52.032;4.314;2022-07-25T10:54:53;4.57;;;1.40;;
18159;SDS011;9205;52.032;4.314;2022-07-25T10:57:27;4.82;;;1.27;;
18159;SDS011;9205;52.032;4.314;2022-07-25T11:00:03;4.20;;;1.40;;
18159;SDS011;9205;52.032;4.314;2022-07-25T11:02:48;3.60;;;1.30;;
18159;SDS011;9205;52.032;4.314;2022-07-25T11:05:20;1.75;;;1.00;;
18159;SDS011;9205;52.032;4.314;2022-07-25T11:07:50;2.73;;;1.10;;
18159;SDS011;9205;52.032;4.314;2022-07-25T11:10:25;5.77;;;1.20;;
18159;SDS011;9205;52.032;4.314;2022-07-25T11:12:53;2.50;;;1.10;;
18159;SDS011;9205;52.032;4.314;2022-07-25T11:15:22;1.70;;;1.03;;
18159;SDS011;9205;52.032;4.314;2022-07-25T11:17:51;3.70;;;1.30;;
18159;SDS011;9205;52.032;4.314;2022-07-25T11:20:20;3.43;;;1.10;;
18159;SDS011;9205;52.032;4.314;2022-07-25T11:22:50;2.30;;;1.00;;
18159;SDS011;9205;52.032;4.314;2022-07-25T11:25:20;1.07;;;0.73;;
18159;SDS011;9205;52.032;4.314;2022-07-25T11:27:54;2.23;;;0.87;;
18159;SDS011;9205;52.032;4.314;2022-07-25T11:30:30;1.70;;;0.97;;
18159;SDS011;9205;52.032;4.314;2022-07-25T11:33:03;3.40;;;1.03;;
18159;SDS011;9205;52.032;4.314;2022-07-25T11:35:34;3.17;;;0.97;;
18159;SDS011;9205;52.032;4.314;2022-07-25T11:38:12;2.83;;;1.10;;
18159;SDS011;9205;52.032;4.314;2022-07-25T11:40:43;1.33;;;0.90;;
18159;SDS011;9205;52.032;4.314;2022-07-25T11:43:22;3.17;;;1.10;;
18159;SDS011;9205;52.032;4.314;2022-07-25T11:46:06;3.00;;;1.20;;
18159;SDS011;9205;52.032;4.314;2022-07-25T11:48:44;2.03;;;1.30;;
18159;SDS011;9205;52.032;4.314;2022-07-25T11:51:15;2.93;;;1.20;;
18159;SDS011;9205;52.032;4.314;2022-07-25T11:53:49;3.97;;;1.10;;
18159;SDS011;9205;52.032;4.314;2022-07-25T11:56:35;1.33;;;1.00;;
18159;SDS011;9205;52.032;4.314;2022-07-25T11:59:12;3.40;;;0.93;;
18159;SDS011;9205;52.032;4.314;2022-07-25T12:01:43;3.03;;;0.97;;
18159;SDS011;9205;52.032;4.314;2022-07-25T12:04:20;1.43;;;0.60;;
18159;SDS011;9205;52.032;4.314;2022-07-25T12:06:50;1.17;;;0.90;;
18159;SDS011;9205;52.032;4.314;2022-07-25T12:09:28;2.70;;;1.10;;
18159;SDS011;9205;52.032;4.314;2022-07-25T12:12:18;3.63;;;1.10;;
18159;SDS011;9205;52.032;4.314;2022-07-25T12:14:52;1.70;;;1.00;;
18159;SDS011;9205;52.032;4.314;2022-07-25T12:17:21;1.27;;;0.70;;
18159;SDS011;9205;52.032;4.314;2022-07-25T12:19:59;2.13;;;0.90;;
18159;SDS011;9205;52.032;4.314;2022-07-25T12:22:38;1.42;;;0.90;;
18159;SDS011;9205;52.032;4.314;2022-07-25T12:25:17;1.15;;;0.85;;
18159;SDS011;9205;52.032;4.314;2022-07-25T12:27:45;1.77;;;0.90;;
18159;SDS011;9205;52.032;4.314;2022-07-25T12:30:19;3.10;;;1.02;;
18159;SDS011;9205;52.032;4.314;2022-07-25T12:32:47;1.90;;;1.10;;
18159;SDS011;9205;52.032;4.314;2022-07-25T12:35:15;2.55;;;1.00;;
18159;SDS011;9205;52.032;4.314;2022-07-25T12:37:46;1.25;;;0.90;;
18159;SDS011;9205;52.032;4.314;2022-07-25T12:40:17;4.60;;;1.08;;
18159;SDS011;9205;52.032;4.314;2022-07-25T12:42:48;2.42;;;0.85;;
18159;SDS011;9205;52.032;4.314;2022-07-25T12:45:18;3.10;;;1.00;;
18159;SDS011;9205;52.032;4.314;2022-07-25T12:47:47;1.50;;;1.17;;
18159;SDS011;9205;52.032;4.314;2022-07-25T12:50:15;1.67;;;0.88;;
18159;SDS011;9205;52.032;4.314;2022-07-25T12:52:48;3.22;;;1.08;;
18159;SDS011;9205;52.032;4.314;2022-07-25T12:55:19;2.03;;;1.00;;
18159;SDS011;9205;52.032;4.314;2022-07-25T12:57:51;1.38;;;0.80;;
18159;SDS011;9205;52.032;4.314;2022-07-25T13:00:23;2.47;;;0.70;;
18159;SDS011;9205;52.032;4.314;2022-07-25T13:02:53;1.35;;;1.00;;
18159;SDS011;9205;52.032;4.314;2022-07-25T13:05:25;1.25;;;0.80;;
18159;SDS011;9205;52.032;4.314;2022-07-25T13:07:55;1.70;;;0.70;;
18159;SDS011;9205;52.032;4.314;2022-07-25T13:10:31;2.00;;;1.00;;
18159;SDS011;9205;52.032;4.314;2022-07-25T13:12:59;1.43;;;0.70;;
18159;SDS011;9205;52.032;4.314;2022-07-25T13:15:39;1.67;;;0.70;;
18159;SDS011;9205;52.032;4.314;2022-07-25T13:18:07;4.00;;;0.87;;
18159;SDS011;9205;52.032;4.314;2022-07-25T13:20:37;1.45;;;0.80;;
18159;SDS011;9205;52.032;4.314;2022-07-25T13:23:12;1.20;;;0.70;;
18159;SDS011;9205;52.032;4.314;2022-07-25T13:26:03;2.17;;;1.25;;
18159;SDS011;9205;52.032;4.314;2022-07-25T13:28:34;2.95;;;0.85;;
18159;SDS011;9205;52.032;4.314;2022-07-25T13:31:06;2.42;;;1.20;;
18159;SDS011;9205;52.032;4.314;2022-07-25T13:33:40;5.00;;;1.23;;
18159;SDS011;9205;52.032;4.314;2022-07-25T13:36:12;2.05;;;0.98;;
18159;SDS011;9205;52.032;4.314;2022-07-25T13:38:45;6.88;;;1.00;;
18159;SDS011;9205;52.032;4.314;2022-07-25T13:41:14;1.17;;;0.77;;
18159;SDS011;9205;52.032;4.314;2022-07-25T13:43:41;1.15;;;0.77;;
18159;SDS011;9205;52.032;4.314;2022-07-25T13:46:13;0.80;;;0.68;;
18159;SDS011;9205;52.032;4.314;2022-07-25T13:48:44;2.25;;;0.68;;
18159;SDS011;9205;52.032;4.314;2022-07-25T13:51:16;0.70;;;0.55;;
18159;SDS011;9205;52.032;4.314;2022-07-25T13:53:43;1.20;;;0.65;;
18159;SDS011;9205;52.032;4.314;2022-07-25T13:56:11;1.58;;;0.88;;
18159;SDS011;9205;52.032;4.314;2022-07-25T13:58:42;3.58;;;0.80;;
18159;SDS011;9205;52.032;4.314;2022-07-25T14:01:13;2.92;;;1.00;;
18159;SDS011;9205;52.032;4.314;2022-07-25T14:03:41;0.70;;;0.70;;
18159;SDS011;9205;52.032;4.314;2022-07-25T14:06:11;1.27;;;0.60;;
18159;SDS011;9205;52.032;4.314;2022-07-25T14:08:38;2.80;;;1.00;;
18159;SDS011;9205;52.032;4.314;2022-07-25T14:11:07;1.73;;;0.65;;
18159;SDS011;9205;52.032;4.314;2022-07-25T14:13:35;1.80;;;0.47;;
18159;SDS011;9205;52.032;4.314;2022-07-25T14:16:10;1.85;;;0.70;;
18159;SDS011;9205;52.032;4.314;2022-07-25T14:18:57;2.15;;;0.60;;
18159;SDS011;9205;52.032;4.314;2022-07-25T14:21:32;2.75;;;0.80;;
18159;SDS011;9205;52.032;4.314;2022-07-25T14:24:02;1.55;;;0.50;;
18159;SDS011;9205;52.032;4.314;2022-07-25T14:26:38;1.92;;;0.40;;
18159;SDS011;9205;52.032;4.314;2022-07-25T14:29:11;0.52;;;0.50;;
18159;SDS011;9205;52.032;4.314;2022-07-25T14:31:45;3.83;;;0.60;;
18159;SDS011;9205;52.032;4.314;2022-07-25T14:34:16;0.90;;;0.65;;
18159;SDS011;9205;52.032;4.314;2022-07-25T14:36:46;1.30;;;0.55;;
18159;SDS011;9205;52.032;4.314;2022-07-25T14:39:15;2.78;;;0.73;;
18159;SDS011;9205;52.032;4.314;2022-07-25T14:41:48;3.03;;;0.60;;
18159;SDS011;9205;52.032;4.314;2022-07-25T14:44:21;1.15;;;0.70;;
18159;SDS011;9205;52.032;4.314;2022-07-25T14:47:07;7.30;;;1.13;;
18159;SDS011;9205;52.032;4.314;2022-07-25T14:49:46;4.00;;;0.80;;
18159;SDS011;9205;52.032;4.314;2022-07-25T14:52:17;2.30;;;0.80;;
18159;SDS011;9205;52.032;4.314;2022-07-25T14:54:50;1.00;;;0.68;;
18159;SDS011;9205;52.032;4.314;2022-07-25T14:57:27;0.65;;;0.60;;
18159;SDS011;9205;52.032;4.314;2022-07-25T15:00:07;5.75;;;0.68;;
18159;SDS011;9205;52.032;4.314;2022-07-25T15:02:48;2.83;;;0.60;;
18159;SDS011;9205;52.032;4.314;2022-07-25T15:05:22;1.10;;;0.50;;
18159;SDS011;9205;52.032;4.314;2022-07-25T15:08:04;0.80;;;0.50;;
18159;SDS011;9205;52.032;4.314;2022-07-25T15:10:49;1.63;;;0.50;;
18159;SDS011;9205;52.032;4.314;2022-07-25T15:13:25;1.58;;;0.60;;
18159;SDS011;9205;52.032;4.314;2022-07-25T15:16:07;1.60;;;0.60;;
18159;SDS011;9205;52.032;4.314;2022-07-25T15:21:38;1.90;;;0.70;;
18159;SDS011;9205;52.032;4.314;2022-07-25T15:24:13;3.50;;;0.83;;
18159;SDS011;9205;52.032;4.314;2022-07-25T15:26:45;3.47;;;1.23;;
18159;SDS011;9205;52.032;4.314;2022-07-25T15:29:16;3.13;;;1.20;;